WJA590 CYWG-CYHZ
Flight info
| Callsign | WJA590 |
|---|---|
| Flight time | N/A |
| Altitude | 35000 |
| Route | RORMA DCT AXOMA DCT SIDPO DCT DEGVA DCT TADIS DCT 48N080W DCT REZIN DCT MLT DCT EBONY FUNDY5 |
| Aircraft | B738/M-SABDFGRVYL/LB2 |
Departure
| Time | 2026-05-06 16:20 |
|---|---|
| Airport | Winnipeg / James Armstrong Richardson International Airport (CYWG) |
Arrival
| Time | N/A |
|---|---|
| Airport | Halifax / Stanfield International Airport (CYHZ) |
| Time | Latitude | Longitude | Altitude | Speed | Heading |
|---|---|---|---|---|---|
| 2026-05-06 15:49 | 49.90664 | -97.22671 | 766 ft | 0 kts | 164° |
| 2026-05-06 16:08 | 49.90669 | -97.22673 | 766 ft | 2 kts | 164° |
| 2026-05-06 16:08 | 49.90683 | -97.22679 | 766 ft | 2 kts | 163° |
| 2026-05-06 16:09 | 49.90697 | -97.22686 | 766 ft | 2 kts | 163° |
| 2026-05-06 16:09 | 49.90711 | -97.22691 | 766 ft | 1 kts | 181° |
| 2026-05-06 16:09 | 49.90725 | -97.22687 | 766 ft | 2 kts | 202° |
| 2026-05-06 16:09 | 49.90736 | -97.22676 | 766 ft | 1 kts | 223° |
| 2026-05-06 16:10 | 49.90744 | -97.22659 | 766 ft | 1 kts | 244° |
| 2026-05-06 16:10 | 49.90748 | -97.22639 | 765 ft | 2 kts | 264° |
| 2026-05-06 16:10 | 49.90750 | -97.22620 | 765 ft | 0 kts | 259° |
| 2026-05-06 16:10 | 49.90750 | -97.22617 | 765 ft | 0 kts | 258° |
| 2026-05-06 16:13 | 49.90747 | -97.22643 | 765 ft | 5 kts | 260° |
| 2026-05-06 16:13 | 49.90736 | -97.22730 | 767 ft | 9 kts | 258° |
| 2026-05-06 16:14 | 49.90721 | -97.22825 | 767 ft | 10 kts | 245° |
| 2026-05-06 16:14 | 49.90659 | -97.22911 | 767 ft | 12 kts | 198° |
| 2026-05-06 16:14 | 49.90579 | -97.22910 | 767 ft | 11 kts | 162° |
| 2026-05-06 16:14 | 49.90499 | -97.22870 | 766 ft | 11 kts | 179° |
| 2026-05-06 16:15 | 49.90423 | -97.22902 | 766 ft | 11 kts | 198° |
| 2026-05-06 16:15 | 49.90353 | -97.22939 | 766 ft | 10 kts | 200° |
| 2026-05-06 16:15 | 49.90287 | -97.22974 | 765 ft | 9 kts | 198° |
| 2026-05-06 16:15 | 49.90218 | -97.23010 | 766 ft | 10 kts | 205° |
| 2026-05-06 16:16 | 49.90177 | -97.23093 | 766 ft | 9 kts | 254° |
| 2026-05-06 16:16 | 49.90147 | -97.23178 | 766 ft | 8 kts | 207° |
| 2026-05-06 16:16 | 49.90095 | -97.23158 | 766 ft | 8 kts | 141° |
| 2026-05-06 16:16 | 49.90045 | -97.23089 | 766 ft | 11 kts | 138° |
| 2026-05-06 16:17 | 49.89972 | -97.22990 | 765 ft | 16 kts | 139° |
| 2026-05-06 16:17 | 49.89877 | -97.22845 | 763 ft | 20 kts | 130° |
| 2026-05-06 16:17 | 49.89787 | -97.22681 | 762 ft | 19 kts | 130° |
| 2026-05-06 16:17 | 49.89727 | -97.22569 | 762 ft | 10 kts | 130° |
| 2026-05-06 16:18 | 49.89678 | -97.22532 | 762 ft | 7 kts | 211° |
| 2026-05-06 16:18 | 49.89644 | -97.22587 | 762 ft | 6 kts | 229° |
| 2026-05-06 16:18 | 49.89615 | -97.22638 | 762 ft | 5 kts | 228° |
| 2026-05-06 16:18 | 49.89577 | -97.22705 | 762 ft | 10 kts | 229° |
| 2026-05-06 16:19 | 49.89536 | -97.22781 | 762 ft | 6 kts | 248° |
| 2026-05-06 16:19 | 49.89557 | -97.22838 | 762 ft | 6 kts | 318° |
| 2026-05-06 16:19 | 49.89602 | -97.22900 | 762 ft | 15 kts | 318° |
| 2026-05-06 16:19 | 49.89854 | -97.23246 | 766 ft | 81 kts | 319° |
| 2026-05-06 16:20 | 49.90426 | -97.24031 | 773 ft | 136 kts | 319° |
| 2026-05-06 16:20 | 49.91238 | -97.25143 | 985 ft | 163 kts | 318° |
| 2026-05-06 16:20 | 49.92026 | -97.26241 | 1789 ft | 154 kts | 318° |
| 2026-05-06 16:20 | 49.92845 | -97.27381 | 2334 ft | 163 kts | 319° |
| 2026-05-06 16:21 | 49.93704 | -97.28561 | 2721 ft | 173 kts | 320° |
| 2026-05-06 16:21 | 49.94653 | -97.29830 | 3038 ft | 187 kts | 320° |
| 2026-05-06 16:21 | 49.95674 | -97.31213 | 3308 ft | 205 kts | 320° |
| 2026-05-06 16:21 | 49.96776 | -97.32722 | 3678 ft | 219 kts | 320° |
| 2026-05-06 16:22 | 49.97940 | -97.34327 | 4180 ft | 229 kts | 320° |
| 2026-05-06 16:22 | 49.99204 | -97.35955 | 4674 ft | 241 kts | 326° |
| 2026-05-06 16:22 | 50.00720 | -97.37049 | 5302 ft | 247 kts | 347° |
| 2026-05-06 16:22 | 50.02455 | -97.37186 | 6017 ft | 252 kts | 5° |
| 2026-05-06 16:23 | 50.04150 | -97.36616 | 6740 ft | 256 kts | 17° |
| 2026-05-06 16:23 | 50.05712 | -97.35268 | 7397 ft | 263 kts | 38° |
| 2026-05-06 16:23 | 50.06840 | -97.33046 | 7994 ft | 272 kts | 59° |
| 2026-05-06 16:23 | 50.07487 | -97.30270 | 8609 ft | 279 kts | 74° |
| 2026-05-06 16:24 | 50.07608 | -97.27206 | 9178 ft | 289 kts | 96° |
| 2026-05-06 16:24 | 50.06911 | -97.24284 | 9775 ft | 298 kts | 122° |
| 2026-05-06 16:24 | 50.05508 | -97.21886 | 10299 ft | 307 kts | 140° |
| 2026-05-06 16:24 | 50.03653 | -97.20093 | 10610 ft | 322 kts | 154° |
| 2026-05-06 16:25 | 50.01579 | -97.18621 | 10885 ft | 337 kts | 151° |
| 2026-05-06 16:25 | 49.99780 | -97.16269 | 11139 ft | 351 kts | 126° |
| 2026-05-06 16:25 | 49.98682 | -97.12871 | 11506 ft | 359 kts | 105° |
| 2026-05-06 16:25 | 49.98133 | -97.09032 | 12074 ft | 363 kts | 96° |
| 2026-05-06 16:26 | 49.97794 | -97.05196 | 12700 ft | 366 kts | 95° |
| 2026-05-06 16:26 | 49.97466 | -97.01283 | 13351 ft | 370 kts | 95° |
| 2026-05-06 16:26 | 49.97084 | -96.97317 | 14008 ft | 374 kts | 97° |
| 2026-05-06 16:26 | 49.96640 | -96.93325 | 14669 ft | 377 kts | 98° |
| 2026-05-06 16:27 | 49.96161 | -96.89362 | 15300 ft | 381 kts | 98° |
| 2026-05-06 16:27 | 49.95652 | -96.85330 | 15934 ft | 385 kts | 98° |
| 2026-05-06 16:27 | 49.95123 | -96.81227 | 16588 ft | 388 kts | 98° |
| 2026-05-06 16:27 | 49.94591 | -96.77110 | 17189 ft | 392 kts | 98° |
| 2026-05-06 16:28 | 49.94138 | -96.72993 | 17786 ft | 394 kts | 94° |
| 2026-05-06 16:28 | 49.93882 | -96.68733 | 18379 ft | 396 kts | 90° |
| 2026-05-06 16:28 | 49.93776 | -96.64512 | 18950 ft | 398 kts | 88° |
| 2026-05-06 16:28 | 49.93740 | -96.60195 | 19551 ft | 401 kts | 87° |
| 2026-05-06 16:29 | 49.93727 | -96.55905 | 20108 ft | 404 kts | 87° |
| 2026-05-06 16:29 | 49.93713 | -96.51527 | 20687 ft | 407 kts | 87° |
| 2026-05-06 16:29 | 49.93694 | -96.47139 | 21239 ft | 410 kts | 87° |
| 2026-05-06 16:29 | 49.93666 | -96.42732 | 21779 ft | 413 kts | 87° |
| 2026-05-06 16:30 | 49.93632 | -96.38287 | 22296 ft | 416 kts | 87° |
| 2026-05-06 16:30 | 49.93619 | -96.36804 | 22457 ft | 417 kts | 87° |
| 2026-05-06 16:30 | 49.93557 | -96.29277 | 23272 ft | 422 kts | 88° |
| 2026-05-06 16:30 | 49.93519 | -96.24718 | 23730 ft | 425 kts | 88° |
| 2026-05-06 16:31 | 49.93480 | -96.20313 | 24179 ft | 427 kts | 88° |
| 2026-05-06 16:31 | 49.93438 | -96.15739 | 24616 ft | 430 kts | 88° |
| 2026-05-06 16:31 | 49.93391 | -96.11072 | 25075 ft | 433 kts | 88° |
| 2026-05-06 16:31 | 49.93342 | -96.06416 | 25513 ft | 435 kts | 88° |
| 2026-05-06 16:32 | 49.93292 | -96.01749 | 25940 ft | 437 kts | 88° |
| 2026-05-06 16:32 | 49.93238 | -95.97032 | 26354 ft | 440 kts | 88° |
| 2026-05-06 16:32 | 49.93182 | -95.92296 | 26771 ft | 442 kts | 88° |
| 2026-05-06 16:32 | 49.93123 | -95.87541 | 27158 ft | 445 kts | 88° |
| 2026-05-06 16:33 | 49.93061 | -95.82729 | 27545 ft | 447 kts | 88° |
| 2026-05-06 16:33 | 49.92997 | -95.77944 | 27920 ft | 449 kts | 88° |
| 2026-05-06 16:33 | 49.92931 | -95.73072 | 28284 ft | 452 kts | 88° |
| 2026-05-06 16:34 | 49.92789 | -95.63264 | 28997 ft | 457 kts | 88° |
| 2026-05-06 16:34 | 49.92716 | -95.58379 | 29332 ft | 459 kts | 88° |
| 2026-05-06 16:34 | 49.92665 | -95.55057 | 29550 ft | 461 kts | 88° |
| 2026-05-06 16:34 | 49.92561 | -95.48513 | 30261 ft | 457 kts | 88° |
| 2026-05-06 16:35 | 49.92479 | -95.43554 | 30673 ft | 456 kts | 88° |
| 2026-05-06 16:35 | 49.92397 | -95.38708 | 31057 ft | 455 kts | 88° |
| 2026-05-06 16:35 | 49.92312 | -95.33818 | 31329 ft | 456 kts | 89° |
| 2026-05-06 16:35 | 49.92225 | -95.28897 | 31542 ft | 456 kts | 89° |
| 2026-05-06 16:36 | 49.92143 | -95.24358 | 31731 ft | 457 kts | 89° |
| 2026-05-06 16:36 | 49.92050 | -95.19334 | 31922 ft | 458 kts | 89° |
| 2026-05-06 16:36 | 49.91957 | -95.14441 | 32131 ft | 459 kts | 89° |
| 2026-05-06 16:36 | 49.91861 | -95.09500 | 32327 ft | 459 kts | 89° |
| 2026-05-06 16:37 | 49.91779 | -95.05304 | 32498 ft | 459 kts | 89° |
| 2026-05-06 16:37 | 49.91699 | -95.01357 | 32656 ft | 459 kts | 89° |
| 2026-05-06 16:38 | 49.91672 | -94.82147 | 33375 ft | 459 kts | 84° |
| 2026-05-06 16:38 | 49.91898 | -94.76573 | 33601 ft | 460 kts | 83° |
| 2026-05-06 16:38 | 49.92121 | -94.71606 | 33798 ft | 460 kts | 83° |
| 2026-05-06 16:39 | 49.92341 | -94.66682 | 34022 ft | 460 kts | 84° |
| 2026-05-06 16:39 | 49.92554 | -94.61706 | 34261 ft | 460 kts | 84° |
| 2026-05-06 16:39 | 49.92754 | -94.56795 | 34465 ft | 461 kts | 84° |
| 2026-05-06 16:39 | 49.92945 | -94.51871 | 34692 ft | 461 kts | 84° |
| 2026-05-06 16:40 | 49.93130 | -94.46905 | 34901 ft | 461 kts | 84° |
| 2026-05-06 16:40 | 49.93481 | -94.36978 | 34976 ft | 463 kts | 84° |
| 2026-05-06 16:41 | 49.93805 | -94.27351 | 34972 ft | 461 kts | 85° |
| 2026-05-06 16:41 | 49.94127 | -94.17496 | 34969 ft | 461 kts | 85° |
| 2026-05-06 16:42 | 49.94433 | -94.07825 | 34965 ft | 460 kts | 85° |
| 2026-05-06 16:42 | 49.94729 | -93.98202 | 34955 ft | 460 kts | 85° |
| 2026-05-06 16:43 | 49.95020 | -93.88490 | 34945 ft | 461 kts | 85° |
| 2026-05-06 16:43 | 49.95300 | -93.78900 | 34945 ft | 462 kts | 85° |
| 2026-05-06 16:44 | 49.95563 | -93.69591 | 34946 ft | 462 kts | 85° |
| 2026-05-06 16:44 | 49.95831 | -93.59860 | 34945 ft | 462 kts | 85° |
| 2026-05-06 16:45 | 49.96093 | -93.50009 | 34939 ft | 462 kts | 85° |
| 2026-05-06 16:45 | 49.96352 | -93.39998 | 34941 ft | 462 kts | 85° |
| 2026-05-06 16:46 | 49.96596 | -93.30182 | 34938 ft | 462 kts | 86° |
| 2026-05-06 16:46 | 49.96835 | -93.20258 | 34932 ft | 462 kts | 86° |
| 2026-05-06 16:47 | 49.97066 | -93.10358 | 34935 ft | 463 kts | 86° |
| 2026-05-06 16:47 | 49.97279 | -93.00807 | 34933 ft | 462 kts | 86° |
| 2026-05-06 16:48 | 49.97493 | -92.90886 | 34935 ft | 461 kts | 86° |
| 2026-05-06 16:48 | 49.97673 | -92.82188 | 34937 ft | 462 kts | 86° |